Terminal Aerodrome Forecast
Issued by NWS Raleigh/Durham, NC

Home | Current Version | Previous Version | Text Only | Print | Product List | Glossary On
Versions: 1 2 3 4 5 6 7 8 9 10 11 12 13 14 15 16 17 18 19 20 21 22 23 24 25 26 27 28 29 30 31
000
FTUS42 KRAH 070532
TAFFAY
TAF
KFAY 070532Z 0706/0806 29004KT P6SM SCT012 BKN250
      TEMPO 0709/0712 SCT007
     FM071400 21009KT P6SM SCT040 BKN250 PROB30 0720/0723 P6SM SHRA
      BKN040=

USA.gov is the U.S. government's official web portal to all federal, state and local government web resources and services.